Denali Natl Park, AK

9:26 AM AKST on November 24, 2017 (GMT -0900)
Yanert View 2350ft | | Change Station

Elev 2350 ft 63.65 °N, 148.77 °W | Updated 11 seconds ago

Light Snow
Light Snow Mist
9.0 °F
Feels Like 9 °F
N
0.0
Wind Variable Wind from SE
Gusts 0.0 mph

Today
High -- | Low -- °F
--% Chance of Precip.
Yesterday
High -- | Low -- °F
Precip. -- in
Pressure 29.87 in
Visibility 5.0 miles
Clouds Overcast 1900 ft
Windchill 9 °F
Dew Point -2 °F
Humidity 61%
Rainfall 0.00 in
Snow Depth Not available.
9:48 AM 3:33 PM
Waxing Crescent, 32% visible
METAR PAIN 241756Z AUTO VRB04KT 5SM -SN BR OVC019 M12/M14 A2972 RMK AO2 SLP115 P0000 60000 T11171139 11117 21128 51006 FZRANO
Pressure 29.87 in
Visibility 5.0 miles
Clouds Overcast 1900 ft
Windchill 9 °F
Dew Point -2 °F
Humidity 61%
Rainfall 0.00 in
Snow Depth Not available.
9:48 AM 3:33 PM
Waxing Crescent, 32% visible
METAR PAIN 241756Z AUTO VRB04KT 5SM -SN BR OVC019 M12/M14 A2972 RMK AO2 SLP115 P0000 60000 T11171139 11117 21128 51006 FZRANO

Get Severe Weather Alerts

Thanks for signing up!

Be on the lookout for a verification email in your inbox.

You'll start receiving the daily forecast at 6 AM.

×

10-Day Weather Forecast

Almanac

Astronomy

Nov. 24, 2017 Rise Set
Actual Time
Civil Twilight
Nautical Twilight
Astronomical Twilight
Moon
Length of Visible Light
Length of Day
Tomorrow will be .
, % of the Moon is Illuminated

Today's Extremes

State Highs State Lows

Community

WunderPhotos

Category 6

Welcome to Category 6. This is the collective home for Weather Underground's featured writeups by Dr. Jeff Masters (right), Bob Henson (left), Chris Burt, and other regular contributors.

Nearby

Air Quality

  Air Quality AQ Index Pollutant
Not available.

Snow Depth

Station Depth Elevation

Earthquake Activity

City Distance Mag. Time & Date
Minimum magnitude displayed is 2.5.

Coastal Water Temperatures

Place Temperature

Stations

Nearby Weather Stations

Station Location Temp. Windchill Dew Point Humidity Wind Precip. Elev Updated Type
                   

Watches & Warnings

There are currently no watches in effect.